Terminal Aerodrome Forecast
Issued by NWS

Current Version | Previous Version | Text Only | Print | Product List | Glossary On
Versions: 1 2 3 4 5 6 7 8 9 10 11 12 13 14 15 16
000
FTUS42 KTAE 230500
TAFABY
TAF
KABY 230521Z 2306/2406 00000KT 3SM BR SCT007 BKN050
      TEMPO 2309/2313 1/2SM FG BKN005
     FM231400 33005KT P6SM SCT040=

USA.gov is the U.S. government's official web portal to all federal, state and local government web resources and services.